createdAt,value
2023-06-04T00:00:50.722Z,18.99
2023-06-04T00:03:16.959Z,18.98
2023-06-04T00:05:43.167Z,18.98
2023-06-04T00:08:09.307Z,18.98
2023-06-04T00:10:35.443Z,18.97
2023-06-04T00:13:01.634Z,18.97
2023-06-04T00:15:27.794Z,18.98
2023-06-04T00:17:54.029Z,18.96
2023-06-04T00:20:20.210Z,18.96
2023-06-04T00:22:46.365Z,18.96
2023-06-04T00:25:12.520Z,18.94
2023-06-04T00:27:38.671Z,18.95
2023-06-04T00:30:04.815Z,18.96
2023-06-04T00:32:30.968Z,18.94
2023-06-04T00:34:57.131Z,18.94
2023-06-04T00:37:25.343Z,18.96
2023-06-04T00:39:51.485Z,18.97
2023-06-04T00:42:17.635Z,18.98
2023-06-04T00:44:43.764Z,18.98
2023-06-04T00:47:09.895Z,18.98
2023-06-04T00:49:36.501Z,18.98
2023-06-04T00:52:02.646Z,18.97
2023-06-04T00:54:28.769Z,18.99
2023-06-04T00:56:54.933Z,18.97
2023-06-04T00:59:21.065Z,18.97
2023-06-04T01:01:47.278Z,18.96
2023-06-04T01:04:13.453Z,18.96
2023-06-04T01:06:39.606Z,18.95
2023-06-04T01:09:05.816Z,18.94
2023-06-04T01:11:31.982Z,18.94
2023-06-04T01:13:58.135Z,18.95
2023-06-04T01:16:24.303Z,18.94
2023-06-04T01:18:50.543Z,18.94
2023-06-04T01:21:16.682Z,18.94
2023-06-04T01:23:42.867Z,18.95
2023-06-04T01:26:09.081Z,18.93
2023-06-04T01:28:35.217Z,18.93
2023-06-04T01:31:01.368Z,18.92
2023-06-04T01:33:27.605Z,18.92
2023-06-04T01:35:53.739Z,18.91
2023-06-04T01:38:19.868Z,18.91
2023-06-04T01:40:46.031Z,18.91
2023-06-04T01:43:12.194Z,18.91
2023-06-04T01:45:38.340Z,18.90
2023-06-04T01:48:04.569Z,18.90
2023-06-04T01:50:30.788Z,18.91
2023-06-04T01:52:56.921Z,18.90
2023-06-04T01:55:23.100Z,18.90
2023-06-04T01:57:49.242Z,18.90
2023-06-04T02:00:15.384Z,18.88
2023-06-04T02:02:41.677Z,18.88
2023-06-04T02:05:07.871Z,18.89
2023-06-04T02:07:34.037Z,18.88
2023-06-04T02:10:00.227Z,18.87
2023-06-04T02:12:26.520Z,18.87
2023-06-04T02:14:52.664Z,18.86
2023-06-04T02:17:18.827Z,18.86
2023-06-04T02:19:44.965Z,18.86
2023-06-04T02:22:11.109Z,18.86
2023-06-04T02:24:37.286Z,18.85
2023-06-04T02:27:03.520Z,18.84
2023-06-04T02:29:29.661Z,18.85
2023-06-04T02:31:56.010Z,18.84
2023-06-04T02:34:22.196Z,18.84
2023-06-04T02:36:48.365Z,18.84
2023-06-04T02:39:14.534Z,18.83
2023-06-04T02:41:40.677Z,18.83
2023-06-04T02:44:06.816Z,18.83
2023-06-04T02:46:33.038Z,18.83
2023-06-04T02:48:59.205Z,18.82
2023-06-04T02:51:25.390Z,18.82
2023-06-04T02:53:51.560Z,18.81
2023-06-04T02:56:17.752Z,18.81
2023-06-04T02:58:43.894Z,18.81
2023-06-04T03:01:10.343Z,18.81
2023-06-04T03:03:36.722Z,18.80
2023-06-04T03:06:02.911Z,18.79
2023-06-04T03:08:29.096Z,18.78
2023-06-04T03:10:55.242Z,18.78
2023-06-04T03:13:21.387Z,18.77
2023-06-04T03:15:47.612Z,18.77
2023-06-04T03:18:13.767Z,18.78
2023-06-04T03:20:39.972Z,18.77
2023-06-04T03:23:06.156Z,18.76
2023-06-04T03:25:32.294Z,18.77
2023-06-04T03:27:58.452Z,18.77
2023-06-04T03:30:24.625Z,18.74
2023-06-04T03:32:50.760Z,18.73
2023-06-04T03:35:16.940Z,18.76
2023-06-04T03:37:43.123Z,18.74
2023-06-04T03:40:09.257Z,18.73
2023-06-04T03:42:35.408Z,18.72
2023-06-04T03:45:01.583Z,18.72
2023-06-04T03:47:27.759Z,18.71
2023-06-04T03:49:53.922Z,18.71
2023-06-04T03:52:20.087Z,18.72
2023-06-04T03:54:46.241Z,18.71
2023-06-04T03:57:12.402Z,18.70
2023-06-04T03:59:38.815Z,18.71
2023-06-04T04:02:04.978Z,18.70
2023-06-04T04:04:31.181Z,18.69
2023-06-04T04:06:57.426Z,18.69
2023-06-04T04:09:23.578Z,18.68
2023-06-04T04:11:49.728Z,18.68
2023-06-04T04:14:15.896Z,18.68
2023-06-04T04:16:42.125Z,18.67
2023-06-04T04:19:08.318Z,18.66
2023-06-04T04:21:34.466Z,18.66
2023-06-04T04:24:00.726Z,18.67
2023-06-04T04:26:27.023Z,18.67
2023-06-04T04:28:53.234Z,18.66
2023-06-04T04:31:19.470Z,18.64
2023-06-04T04:33:45.740Z,18.65
2023-06-04T04:36:11.942Z,18.65
2023-06-04T04:38:38.094Z,18.63
2023-06-04T04:41:04.261Z,18.63
2023-06-04T04:43:30.534Z,18.63
2023-06-04T04:45:56.702Z,18.62
2023-06-04T04:48:22.890Z,18.62
2023-06-04T04:50:49.056Z,18.61
2023-06-04T04:53:15.192Z,18.62
2023-06-04T04:55:41.326Z,18.59
2023-06-04T04:58:07.474Z,18.60
2023-06-04T05:00:33.615Z,18.60
2023-06-04T05:02:59.813Z,18.60
2023-06-04T05:05:26.069Z,18.60
2023-06-04T05:07:52.242Z,18.58
2023-06-04T05:10:18.389Z,18.60
2023-06-04T05:12:44.556Z,18.58
2023-06-04T05:15:10.728Z,18.58
2023-06-04T05:17:36.991Z,18.59
2023-06-04T05:20:03.232Z,18.59
2023-06-04T05:22:29.371Z,18.57
2023-06-04T05:24:55.520Z,18.57
2023-06-04T05:27:21.665Z,18.57
2023-06-04T05:29:47.807Z,18.58
2023-06-04T05:32:13.954Z,18.57
2023-06-04T05:34:40.126Z,18.57
2023-06-04T05:37:06.257Z,18.59
2023-06-04T05:39:32.398Z,18.58
2023-06-04T05:41:58.610Z,18.59
2023-06-04T05:44:24.745Z,18.59
2023-06-04T05:46:50.918Z,18.59
2023-06-04T05:49:17.080Z,18.59
2023-06-04T05:51:43.216Z,18.59
2023-06-04T05:54:09.353Z,18.58
2023-06-04T05:56:35.558Z,18.58
2023-06-04T05:59:01.698Z,18.57
2023-06-04T06:01:27.828Z,18.57
2023-06-04T06:03:54.109Z,18.58
2023-06-04T06:06:20.394Z,18.59
2023-06-04T06:08:46.785Z,18.57
2023-06-04T06:11:13.173Z,18.57
2023-06-04T06:13:39.558Z,18.58
2023-06-04T06:16:05.762Z,18.58
2023-06-04T06:18:32.036Z,18.58
2023-06-04T06:20:58.168Z,18.59
2023-06-04T06:23:24.342Z,18.59
2023-06-04T06:25:50.532Z,18.58
2023-06-04T06:28:16.688Z,18.58
2023-06-04T06:30:42.822Z,18.59
2023-06-04T06:33:09.017Z,18.60
2023-06-04T06:35:35.205Z,18.59
2023-06-04T06:38:01.362Z,18.59
2023-06-04T06:40:27.528Z,18.60
2023-06-04T06:42:53.722Z,18.60
2023-06-04T06:45:20.120Z,18.60
2023-06-04T06:47:46.340Z,18.60
2023-06-04T06:50:12.509Z,18.58
2023-06-04T06:52:38.647Z,18.58
2023-06-04T06:55:04.799Z,18.59
2023-06-04T06:57:30.928Z,18.61
2023-06-04T06:59:57.061Z,18.62
2023-06-04T07:02:23.332Z,18.64
2023-06-04T07:04:49.564Z,18.63
2023-06-04T07:07:17.933Z,18.64
2023-06-04T07:09:45.013Z,18.63
2023-06-04T07:12:11.161Z,18.63
2023-06-04T07:14:37.291Z,18.64
2023-06-04T07:17:03.583Z,18.62
2023-06-04T07:19:29.794Z,18.62
2023-06-04T07:21:55.948Z,18.56
2023-06-04T07:24:22.122Z,18.62
2023-06-04T07:26:48.263Z,18.63
2023-06-04T07:29:14.414Z,18.65
2023-06-04T07:31:40.588Z,18.64
2023-06-04T07:34:06.774Z,18.65
2023-06-04T07:36:32.938Z,18.66
2023-06-04T07:38:59.224Z,18.60
2023-06-04T07:41:25.356Z,18.63
2023-06-04T07:43:51.499Z,18.64
2023-06-04T07:46:17.744Z,18.66
2023-06-04T07:48:43.926Z,18.68
2023-06-04T07:51:10.052Z,18.68
2023-06-04T07:53:36.199Z,18.69
2023-06-04T07:56:02.323Z,18.68
2023-06-04T07:58:28.493Z,18.70
2023-06-04T08:00:54.661Z,18.69
2023-06-04T08:03:20.889Z,18.70
2023-06-04T08:05:47.102Z,18.70
2023-06-04T08:08:13.398Z,18.72
2023-06-04T08:10:39.548Z,18.71
2023-06-04T08:13:05.688Z,18.71
2023-06-04T08:15:31.917Z,18.70
2023-06-04T08:17:58.103Z,18.73
2023-06-04T08:20:25.926Z,18.73
2023-06-04T08:22:53.488Z,18.73
2023-06-04T08:25:19.622Z,18.74
2023-06-04T08:27:45.781Z,18.76
2023-06-04T08:30:11.938Z,18.77
2023-06-04T08:32:38.138Z,18.76
2023-06-04T08:35:04.339Z,18.76
2023-06-04T08:37:30.545Z,18.78
2023-06-04T08:39:56.688Z,18.76
2023-06-04T08:42:22.871Z,18.77
2023-06-04T08:44:49.031Z,18.78
2023-06-04T08:47:15.169Z,18.79
2023-06-04T08:49:41.321Z,18.78
2023-06-04T08:52:07.549Z,18.80
2023-06-04T08:54:33.712Z,18.81
2023-06-04T08:56:59.857Z,18.82
2023-06-04T08:59:25.998Z,18.82
2023-06-04T09:01:52.169Z,18.83
2023-06-04T09:04:18.423Z,18.84
2023-06-04T09:06:44.645Z,18.85
2023-06-04T09:09:10.882Z,18.85
2023-06-04T09:11:37.198Z,18.86
2023-06-04T09:14:03.388Z,18.86
2023-06-04T09:16:29.722Z,18.85
2023-06-04T09:18:55.939Z,18.86
2023-06-04T09:21:22.089Z,18.88
2023-06-04T09:23:48.347Z,18.87
2023-06-04T09:26:14.584Z,18.89
2023-06-04T09:28:40.740Z,18.90
2023-06-04T09:31:07.099Z,18.90
2023-06-04T09:33:33.492Z,18.90
2023-06-04T09:35:59.660Z,18.91
2023-06-04T09:38:25.847Z,18.93
2023-06-04T09:40:52.002Z,18.93
2023-06-04T09:43:18.156Z,18.93
2023-06-04T09:45:44.307Z,18.94
2023-06-04T09:48:10.629Z,18.94
2023-06-04T09:50:36.821Z,18.96
2023-06-04T09:53:02.976Z,18.96
2023-06-04T09:55:29.127Z,18.96
2023-06-04T09:57:55.308Z,18.97
2023-06-04T10:00:21.476Z,18.98
2023-06-04T10:02:47.719Z,18.98
2023-06-04T10:05:14.015Z,19.00
2023-06-04T10:07:40.185Z,19.00
2023-06-04T10:10:06.379Z,19.00
2023-06-04T10:12:33.120Z,19.01
2023-06-04T10:14:59.254Z,19.02
2023-06-04T10:17:25.434Z,19.02
2023-06-04T10:19:51.591Z,19.02
2023-06-04T10:22:17.730Z,19.02
2023-06-04T10:24:43.855Z,19.03
2023-06-04T10:27:10.057Z,19.03
2023-06-04T10:29:36.209Z,19.03
2023-06-04T10:32:02.425Z,19.05
2023-06-04T10:34:28.620Z,19.04
2023-06-04T10:36:54.766Z,19.05
2023-06-04T10:39:20.908Z,19.06
2023-06-04T10:41:47.097Z,19.07
2023-06-04T10:44:13.340Z,19.07
2023-06-04T10:46:39.715Z,19.10
2023-06-04T10:49:05.931Z,19.09
2023-06-04T10:51:32.081Z,19.09
2023-06-04T10:53:58.248Z,19.09
2023-06-04T10:56:24.535Z,19.10
2023-06-04T10:58:51.822Z,19.11
2023-06-04T11:01:18.051Z,19.11
2023-06-04T11:03:44.414Z,19.11
2023-06-04T11:06:10.589Z,19.13
2023-06-04T11:08:36.731Z,19.13
2023-06-04T11:11:02.920Z,19.12
2023-06-04T11:13:29.133Z,19.13
2023-06-04T11:15:55.368Z,19.13
2023-06-04T11:18:21.568Z,19.15
2023-06-04T11:20:47.791Z,19.15
2023-06-04T11:23:13.961Z,19.16
2023-06-04T11:25:40.285Z,19.18
2023-06-04T11:28:06.522Z,19.16
2023-06-04T11:30:32.728Z,19.16
2023-06-04T11:32:58.900Z,19.20
2023-06-04T11:35:25.055Z,19.19
2023-06-04T11:37:51.243Z,19.19
2023-06-04T11:40:17.432Z,19.20
2023-06-04T11:42:43.572Z,19.20
2023-06-04T11:45:09.730Z,19.20
2023-06-04T11:47:35.955Z,19.21
2023-06-04T11:50:02.210Z,19.21
2023-06-04T11:52:28.365Z,19.21
2023-06-04T11:54:54.532Z,19.22
2023-06-04T11:57:20.690Z,19.23
2023-06-04T11:59:46.838Z,19.23
2023-06-04T12:02:13.083Z,19.23
2023-06-04T12:04:39.280Z,19.23
2023-06-04T12:07:05.435Z,19.24
2023-06-04T12:09:31.612Z,19.25
2023-06-04T12:11:57.745Z,19.25
2023-06-04T12:14:24.026Z,19.27
2023-06-04T12:16:50.341Z,19.27
2023-06-04T12:19:16.555Z,19.27
2023-06-04T12:21:42.710Z,19.28
2023-06-04T12:24:09.094Z,19.29
2023-06-04T12:26:35.359Z,19.30
2023-06-04T12:29:01.491Z,19.30
2023-06-04T12:31:27.661Z,19.30
2023-06-04T12:33:53.801Z,19.31
2023-06-04T12:36:19.940Z,19.31
2023-06-04T12:38:48.409Z,19.31
2023-06-04T12:41:14.674Z,19.32
2023-06-04T12:43:40.953Z,19.32
2023-06-04T12:46:07.367Z,19.33
2023-06-04T12:48:33.662Z,19.34
2023-06-04T12:50:59.798Z,19.33
2023-06-04T12:53:25.969Z,19.34
2023-06-04T12:55:52.113Z,19.34
2023-06-04T12:58:18.270Z,19.35
2023-06-04T13:00:44.434Z,19.36
2023-06-04T13:03:10.675Z,19.35
2023-06-04T13:05:36.865Z,19.37
2023-06-04T13:08:03.010Z,19.37
2023-06-04T13:10:29.143Z,19.39
2023-06-04T13:12:55.291Z,19.40
2023-06-04T13:15:21.471Z,19.41
2023-06-04T13:17:47.682Z,19.42
2023-06-04T13:20:13.896Z,19.41
2023-06-04T13:22:40.424Z,19.42
2023-06-04T13:25:06.577Z,19.41
2023-06-04T13:27:32.739Z,19.43
2023-06-04T13:29:58.951Z,19.42
2023-06-04T13:32:26.915Z,19.44
2023-06-04T13:34:53.114Z,19.44
2023-06-04T13:37:19.256Z,19.45
2023-06-04T13:39:45.389Z,19.46
2023-06-04T13:42:11.542Z,19.46
2023-06-04T13:44:37.738Z,19.46
2023-06-04T13:47:03.899Z,19.46
2023-06-04T13:49:30.105Z,19.46
2023-06-04T13:51:56.298Z,19.48
2023-06-04T13:54:22.460Z,19.49
2023-06-04T13:56:48.605Z,19.50
2023-06-04T13:59:14.779Z,19.50
2023-06-04T14:01:40.971Z,19.51
2023-06-04T14:04:07.158Z,19.52
2023-06-04T14:06:33.707Z,19.51
2023-06-04T14:08:59.887Z,19.51
2023-06-04T14:11:26.032Z,19.52
2023-06-04T14:13:52.222Z,19.52
2023-06-04T14:16:18.428Z,19.53
2023-06-04T14:18:44.612Z,19.53
2023-06-04T14:21:10.859Z,19.54
2023-06-04T14:23:37.009Z,19.53
2023-06-04T14:26:03.196Z,19.54
2023-06-04T14:28:29.364Z,19.56
2023-06-04T14:30:55.514Z,19.56
2023-06-04T14:33:21.679Z,19.56
2023-06-04T14:35:48.197Z,19.56
2023-06-04T14:38:14.463Z,19.57
2023-06-04T14:40:40.682Z,19.57
2023-06-04T14:43:06.882Z,19.57
2023-06-04T14:45:33.075Z,19.58
2023-06-04T14:48:13.349Z,19.58
2023-06-04T14:50:41.017Z,19.58
2023-06-04T14:53:07.164Z,19.60
2023-06-04T14:55:33.314Z,19.60
2023-06-04T14:57:59.514Z,19.61
2023-06-04T15:00:25.676Z,19.62
2023-06-04T15:02:51.963Z,19.63
2023-06-04T15:05:18.127Z,19.62
2023-06-04T15:07:44.276Z,19.63
2023-06-04T15:10:10.456Z,19.63
2023-06-04T15:12:37.062Z,19.64
2023-06-04T15:15:03.213Z,19.63
2023-06-04T15:17:29.470Z,19.63
2023-06-04T15:19:55.740Z,19.64
2023-06-04T15:22:21.904Z,19.65
2023-06-04T15:24:48.038Z,19.64
2023-06-04T15:27:14.197Z,19.65
2023-06-04T15:29:40.368Z,19.66
2023-06-04T15:32:06.584Z,19.66
2023-06-04T15:34:32.804Z,19.66
2023-06-04T15:36:58.999Z,19.67
2023-06-04T15:39:25.148Z,19.67
2023-06-04T15:41:51.329Z,19.68
2023-06-04T15:44:17.475Z,19.67
2023-06-04T15:46:43.649Z,19.67
2023-06-04T15:49:11.904Z,19.68
2023-06-04T15:51:38.056Z,19.68
2023-06-04T15:54:04.212Z,19.69
2023-06-04T15:56:30.416Z,19.68
2023-06-04T15:58:56.666Z,19.70
2023-06-04T16:01:22.868Z,19.69
2023-06-04T16:03:49.072Z,19.69
2023-06-04T16:06:15.301Z,19.71
2023-06-04T16:08:41.456Z,19.72
2023-06-04T16:11:07.764Z,19.72
2023-06-04T16:13:34.017Z,19.72
2023-06-04T16:16:00.303Z,19.72
2023-06-04T16:18:26.483Z,19.72
2023-06-04T16:20:52.617Z,19.72
2023-06-04T16:23:18.747Z,19.73
2023-06-04T16:25:44.946Z,19.73
2023-06-04T16:28:11.078Z,19.73
2023-06-04T16:30:37.221Z,19.74
2023-06-04T16:33:03.400Z,19.74
2023-06-04T16:35:29.586Z,19.74
2023-06-04T16:37:55.740Z,19.76
2023-06-04T16:40:21.906Z,19.76
2023-06-04T16:42:48.060Z,19.75
2023-06-04T16:45:14.205Z,19.76
2023-06-04T16:47:40.416Z,19.76
2023-06-04T16:50:06.601Z,19.75
2023-06-04T16:52:32.754Z,19.76
2023-06-04T16:54:58.899Z,19.76
2023-06-04T16:57:25.037Z,19.77
2023-06-04T16:59:51.187Z,19.77
2023-06-04T17:02:17.396Z,19.77
2023-06-04T17:04:43.749Z,19.78
2023-06-04T17:07:09.890Z,19.78
2023-06-04T17:09:36.047Z,19.79
2023-06-04T17:12:02.202Z,19.80
2023-06-04T17:14:28.373Z,19.79
2023-06-04T17:16:54.694Z,19.80
2023-06-04T17:19:20.860Z,19.80
2023-06-04T17:21:46.982Z,19.81
2023-06-04T17:24:13.313Z,19.81
2023-06-04T17:26:39.561Z,19.81
2023-06-04T17:29:05.721Z,19.82
2023-06-04T17:31:31.945Z,19.82
2023-06-04T17:33:58.134Z,19.82
2023-06-04T17:36:25.438Z,19.81
2023-06-04T17:38:51.639Z,19.83
2023-06-04T17:41:17.799Z,19.82
2023-06-04T17:43:43.965Z,19.83
2023-06-04T17:46:10.518Z,19.83
2023-06-04T17:48:36.851Z,19.83
2023-06-04T17:51:02.993Z,19.83
2023-06-04T17:53:29.167Z,19.83
2023-06-04T17:55:55.305Z,19.83
2023-06-04T17:58:21.439Z,19.83
2023-06-04T18:00:47.597Z,19.84
2023-06-04T18:03:13.782Z,19.84
2023-06-04T18:05:39.961Z,19.84
2023-06-04T18:08:06.120Z,19.84
2023-06-04T18:10:32.246Z,19.84
2023-06-04T18:12:58.418Z,19.85
2023-06-04T18:15:24.591Z,19.84
2023-06-04T18:17:50.794Z,19.85
2023-06-04T18:20:16.970Z,19.85
2023-06-04T18:22:43.257Z,19.84
2023-06-04T18:25:09.448Z,19.85
2023-06-04T18:27:35.586Z,19.84
2023-06-04T18:30:01.788Z,19.85
2023-06-04T18:32:27.954Z,19.85
2023-06-04T18:34:54.113Z,19.85
2023-06-04T18:37:20.272Z,19.85
2023-06-04T18:39:46.427Z,19.85
2023-06-04T18:42:28.644Z,19.85
2023-06-04T18:44:56.097Z,19.84
2023-06-04T18:47:22.254Z,19.85
2023-06-04T18:49:48.397Z,19.85
2023-06-04T18:52:14.551Z,19.85
2023-06-04T18:54:40.693Z,19.86
2023-06-04T18:57:06.847Z,19.86
2023-06-04T18:59:33.066Z,19.86
2023-06-04T19:01:59.214Z,19.87
2023-06-04T19:04:25.445Z,19.86
2023-06-04T19:06:51.648Z,19.87
2023-06-04T19:09:17.785Z,19.87
2023-06-04T19:11:43.936Z,19.87
2023-06-04T19:14:10.116Z,19.87
2023-06-04T19:16:36.317Z,19.87
2023-06-04T19:19:02.518Z,19.87
2023-06-04T19:21:28.698Z,19.87
2023-06-04T19:23:54.839Z,19.87
2023-06-04T19:26:20.970Z,19.87
2023-06-04T19:28:47.166Z,19.87
2023-06-04T19:31:13.332Z,19.86
2023-06-04T19:33:39.554Z,19.87
2023-06-04T19:36:06.017Z,19.86
2023-06-04T19:38:32.367Z,19.86
2023-06-04T19:40:58.541Z,19.85
2023-06-04T19:43:24.693Z,19.86
2023-06-04T19:45:50.848Z,19.86
2023-06-04T19:48:17.013Z,19.85
2023-06-04T19:50:43.264Z,19.86
2023-06-04T19:53:09.392Z,19.85
2023-06-04T19:55:35.513Z,19.85
2023-06-04T19:58:01.757Z,19.85
2023-06-04T20:00:27.890Z,19.86
2023-06-04T20:02:54.160Z,19.85
2023-06-04T20:05:20.531Z,19.85
2023-06-04T20:07:46.677Z,19.86
2023-06-04T20:10:12.945Z,19.86
2023-06-04T20:12:39.137Z,19.85
2023-06-04T20:15:05.306Z,19.85
2023-06-04T20:17:31.480Z,19.83
2023-06-04T20:19:57.722Z,19.84
2023-06-04T20:22:23.869Z,19.84
2023-06-04T20:24:50.025Z,19.84
2023-06-04T20:27:16.218Z,19.84
2023-06-04T20:29:42.389Z,19.85
2023-06-04T20:32:08.598Z,19.86
2023-06-04T20:34:34.845Z,19.86
2023-06-04T20:37:00.990Z,19.85
2023-06-04T20:39:27.164Z,19.86
2023-06-04T20:41:53.350Z,19.86
2023-06-04T20:44:19.490Z,19.86
2023-06-04T20:46:45.679Z,19.86
2023-06-04T20:49:11.852Z,19.85
2023-06-04T20:51:38.047Z,19.86
2023-06-04T20:54:04.240Z,19.85
2023-06-04T20:56:30.413Z,19.86
2023-06-04T20:58:56.560Z,19.84
2023-06-04T21:01:22.747Z,19.85
2023-06-04T21:03:49.099Z,19.85
2023-06-04T21:06:15.343Z,19.85
2023-06-04T21:08:41.504Z,19.85
2023-06-04T21:11:07.890Z,19.84
2023-06-04T21:13:34.303Z,19.84
2023-06-04T21:16:00.752Z,19.84
2023-06-04T21:18:27.022Z,19.84
2023-06-04T21:20:53.191Z,19.84
2023-06-04T21:23:19.449Z,19.84
2023-06-04T21:25:45.743Z,19.84
2023-06-04T21:28:11.883Z,19.84
2023-06-04T21:30:38.145Z,19.83
2023-06-04T21:33:04.468Z,19.83
2023-06-04T21:35:30.706Z,19.83
2023-06-04T21:37:56.903Z,19.83
2023-06-04T21:40:23.144Z,19.84
2023-06-04T21:42:49.296Z,19.83
2023-06-04T21:45:15.790Z,19.82
2023-06-04T21:47:42.435Z,19.82
2023-06-04T21:50:08.638Z,19.82
2023-06-04T21:52:34.879Z,19.82
2023-06-04T21:55:01.183Z,19.81
2023-06-04T21:57:27.317Z,19.82
2023-06-04T21:59:53.472Z,19.81
2023-06-04T22:02:19.666Z,19.81
2023-06-04T22:04:45.843Z,19.79
2023-06-04T22:07:12.042Z,19.81
2023-06-04T22:09:38.242Z,19.80
2023-06-04T22:12:04.466Z,19.80
2023-06-04T22:14:30.622Z,19.80
2023-06-04T22:16:56.904Z,19.79
2023-06-04T22:19:23.118Z,19.79
2023-06-04T22:21:49.326Z,19.78
2023-06-04T22:24:15.523Z,19.78
2023-06-04T22:26:41.693Z,19.78
2023-06-04T22:29:07.995Z,19.79
2023-06-04T22:31:34.238Z,19.78
2023-06-04T22:34:00.527Z,19.77
2023-06-04T22:36:26.672Z,19.78
2023-06-04T22:38:52.956Z,19.76
2023-06-04T22:41:19.212Z,19.76
2023-06-04T22:43:45.419Z,19.76
2023-06-04T22:46:11.671Z,19.75
2023-06-04T22:48:37.827Z,19.75
2023-06-04T22:51:04.082Z,19.76
2023-06-04T22:53:30.235Z,19.76
2023-06-04T22:55:56.399Z,19.75
2023-06-04T22:58:22.636Z,19.74
2023-06-04T23:00:48.817Z,19.74
2023-06-04T23:03:15.112Z,19.74
2023-06-04T23:05:41.374Z,19.74
2023-06-04T23:08:07.526Z,19.74
2023-06-04T23:10:33.712Z,19.74
2023-06-04T23:12:59.841Z,19.72
2023-06-04T23:15:26.056Z,19.72
2023-06-04T23:17:52.206Z,19.70
2023-06-04T23:20:18.423Z,19.71
2023-06-04T23:22:44.586Z,19.70
2023-06-04T23:25:10.717Z,19.70
2023-06-04T23:27:36.860Z,19.68
2023-06-04T23:30:03.073Z,19.69
2023-06-04T23:32:29.270Z,19.69
2023-06-04T23:34:55.434Z,19.68
2023-06-04T23:37:21.645Z,19.68
2023-06-04T23:39:47.784Z,19.68
2023-06-04T23:42:13.909Z,19.66
2023-06-04T23:44:40.065Z,19.66
2023-06-04T23:47:06.188Z,19.66
2023-06-04T23:49:32.313Z,19.66
2023-06-04T23:51:58.462Z,19.65
2023-06-04T23:54:24.628Z,19.64
2023-06-04T23:56:50.762Z,19.64
2023-06-04T23:59:16.927Z,19.64
